createdAt,value
2018-07-01T00:00:39.138Z,43.50
2018-07-01T00:03:09.531Z,43.40
2018-07-01T00:05:39.851Z,43.50
2018-07-01T00:08:10.237Z,43.80
2018-07-01T00:10:40.622Z,43.90
2018-07-01T00:13:10.954Z,44.30
2018-07-01T00:15:41.388Z,44.20
2018-07-01T00:18:11.721Z,44.20
2018-07-01T00:20:42.117Z,44.30
2018-07-01T00:23:12.471Z,44.20
2018-07-01T00:25:42.906Z,44.20
2018-07-01T00:28:13.620Z,44.20
2018-07-01T00:30:43.976Z,44.30
2018-07-01T00:33:14.300Z,44.70
2018-07-01T00:35:44.735Z,45.10
2018-07-01T00:38:15.080Z,45.50
2018-07-01T00:40:45.478Z,45.50
2018-07-01T00:43:15.691Z,45.80
2018-07-01T00:45:46.139Z,46.30
2018-07-01T00:48:16.770Z,46.40
2018-07-01T00:50:47.132Z,46.60
2018-07-01T00:56:15.173Z,47.00
2018-07-01T00:58:45.604Z,47.30
2018-07-01T01:03:45.913Z,47.80
2018-07-01T01:06:16.239Z,47.90
2018-07-01T01:11:16.618Z,48.70
2018-07-01T01:13:46.958Z,48.20
2018-07-01T01:16:17.251Z,48.30
2018-07-01T01:18:47.527Z,48.70
2018-07-01T01:21:18.109Z,49.30
2018-07-01T01:23:48.503Z,49.40
2018-07-01T01:28:48.826Z,49.80
2018-07-01T01:31:19.216Z,49.90
2018-07-01T01:33:49.820Z,50.00
2018-07-01T01:38:51.225Z,50.50
2018-07-01T01:41:26.826Z,51.50
2018-07-01T01:44:04.327Z,51.00
2018-07-01T01:46:39.761Z,51.20
2018-07-01T01:50:14.593Z,51.60
2018-07-01T01:52:51.523Z,51.70
2018-07-01T01:56:26.709Z,52.40
2018-07-01T01:59:02.090Z,52.40
2018-07-01T02:01:38.928Z,52.30
2018-07-01T02:04:19.850Z,52.30
2018-07-01T02:06:56.336Z,53.20
2018-07-01T02:09:28.845Z,53.00
2018-07-01T02:14:36.954Z,53.30
2018-07-01T02:17:10.044Z,53.30
2018-07-01T02:22:12.991Z,53.90
2018-07-01T02:24:46.152Z,54.00
2018-07-01T02:27:16.621Z,54.30
2018-07-01T02:29:47.007Z,54.00
2018-07-01T02:32:17.802Z,54.20
2018-07-01T02:34:48.094Z,54.40
2018-07-01T02:37:18.545Z,54.60
2018-07-01T02:39:48.876Z,54.50
2018-07-01T02:42:19.190Z,54.80
2018-07-01T02:44:49.581Z,55.00
2018-07-01T02:47:19.919Z,55.20
2018-07-01T02:49:51.146Z,54.90
2018-07-01T02:52:21.665Z,55.10
2018-07-01T02:54:52.001Z,55.30
2018-07-01T02:57:22.372Z,55.30
2018-07-01T02:59:52.759Z,55.50
2018-07-01T03:02:23.124Z,55.70
2018-07-01T03:04:53.627Z,56.20
2018-07-01T03:07:24.577Z,56.20
2018-07-01T03:09:54.929Z,56.40
2018-07-01T03:12:25.205Z,56.40
2018-07-01T03:14:55.695Z,56.40
2018-07-01T03:17:25.990Z,56.40
2018-07-01T03:22:26.393Z,56.50
2018-07-01T03:24:56.915Z,56.40
2018-07-01T03:27:27.283Z,56.50
2018-07-01T03:29:57.786Z,56.50
2018-07-01T03:32:28.125Z,56.70
2018-07-01T03:34:58.726Z,56.60
2018-07-01T03:37:29.034Z,56.40
2018-07-01T03:39:59.375Z,56.50
2018-07-01T03:42:29.707Z,56.50
2018-07-01T03:45:00.197Z,56.60
2018-07-01T03:47:30.630Z,56.00
2018-07-01T03:50:00.920Z,55.90
2018-07-01T03:52:31.235Z,55.70
2018-07-01T03:55:01.552Z,55.60
2018-07-01T03:57:31.964Z,55.50
2018-07-01T04:00:02.293Z,55.50
2018-07-01T04:02:32.585Z,55.30
2018-07-01T04:05:02.945Z,55.10
2018-07-01T04:07:33.431Z,55.10
2018-07-01T04:10:03.920Z,55.10
2018-07-01T04:12:34.310Z,54.90
2018-07-01T04:15:04.781Z,54.50
2018-07-01T04:17:35.116Z,54.80
2018-07-01T04:20:06.092Z,54.70
2018-07-01T04:22:36.497Z,54.70
2018-07-01T04:25:06.907Z,54.20
2018-07-01T04:27:37.420Z,54.20
2018-07-01T04:30:07.783Z,54.00
2018-07-01T04:32:38.052Z,54.10
2018-07-01T04:35:08.406Z,53.40
2018-07-01T04:37:38.782Z,53.40
2018-07-01T04:40:09.171Z,53.00
2018-07-01T04:42:39.491Z,52.30
2018-07-01T04:45:09.839Z,52.10
2018-07-01T04:47:40.217Z,52.20
2018-07-01T04:50:10.898Z,51.90
2018-07-01T04:52:41.306Z,51.30
2018-07-01T04:55:11.731Z,51.50
2018-07-01T04:57:42.027Z,51.20
2018-07-01T05:00:12.520Z,51.50
2018-07-01T05:02:42.835Z,50.70
2018-07-01T05:05:13.123Z,50.20
2018-07-01T05:07:43.449Z,50.30
2018-07-01T05:10:14.122Z,50.90
2018-07-01T05:12:44.490Z,50.00
2018-07-01T05:15:14.851Z,49.10
2018-07-01T05:17:45.228Z,49.70
2018-07-01T05:20:15.711Z,49.20
2018-07-01T05:27:46.195Z,47.80
2018-07-01T05:30:16.450Z,47.40
2018-07-01T05:32:46.835Z,48.10
2018-07-01T05:35:17.123Z,47.50
2018-07-01T05:37:47.662Z,47.40
2018-07-01T05:40:18.140Z,47.00
2018-07-01T05:42:48.486Z,46.80
2018-07-01T05:45:18.755Z,46.50
2018-07-01T05:47:49.133Z,45.80
2018-07-01T05:50:19.651Z,46.50
2018-07-01T05:52:49.963Z,46.50
2018-07-01T05:55:20.445Z,45.50
2018-07-01T06:00:20.684Z,44.20
2018-07-01T06:02:50.963Z,44.60
2018-07-01T06:05:21.441Z,44.20
2018-07-01T06:10:21.683Z,43.70
2018-07-01T06:12:51.960Z,43.50
2018-07-01T06:15:22.422Z,43.60
2018-07-01T06:17:52.771Z,43.70
2018-07-01T06:20:23.150Z,44.50
2018-07-01T06:25:23.450Z,44.40
2018-07-01T06:27:53.749Z,44.30
2018-07-01T06:30:24.033Z,44.00
2018-07-01T06:32:54.585Z,43.40
2018-07-01T06:35:25.061Z,42.60
2018-07-01T06:37:55.481Z,42.80
2018-07-01T06:40:25.886Z,42.70
2018-07-01T06:42:56.135Z,42.50
2018-07-01T06:45:26.408Z,40.70
2018-07-01T06:47:56.712Z,40.70
2018-07-01T06:50:27.048Z,40.90
2018-07-01T06:52:57.357Z,41.20
2018-07-01T06:55:28.061Z,40.30
2018-07-01T07:00:28.445Z,39.00
2018-07-01T07:02:58.770Z,39.00
2018-07-01T07:05:29.107Z,38.60
2018-07-01T07:07:59.775Z,37.20
2018-07-01T07:10:30.071Z,38.10
2018-07-01T07:13:00.464Z,38.30
2018-07-01T07:15:30.815Z,38.70
2018-07-01T07:18:01.244Z,38.60
2018-07-01T07:20:31.593Z,38.00
2018-07-01T07:23:02.041Z,38.40
2018-07-01T07:25:32.359Z,37.50
2018-07-01T07:28:02.735Z,38.80
2018-07-01T07:30:33.982Z,38.50
2018-07-01T07:33:04.679Z,38.40
2018-07-01T07:35:35.033Z,37.20
2018-07-01T07:38:05.675Z,37.10
2018-07-01T07:40:36.164Z,38.20
2018-07-01T07:45:36.441Z,37.40
2018-07-01T07:48:06.812Z,34.50
2018-07-01T07:53:07.710Z,34.30
2018-07-01T07:55:37.990Z,34.20
2018-07-01T07:58:08.372Z,34.50
2018-07-01T08:00:38.839Z,33.90
2018-07-01T08:03:09.195Z,33.70
2018-07-01T08:05:39.714Z,34.20
2018-07-01T08:08:10.056Z,34.20
2018-07-01T08:10:40.453Z,34.60
2018-07-01T08:13:10.979Z,33.90
2018-07-01T08:18:11.207Z,34.60
2018-07-01T08:20:41.724Z,33.90
2018-07-01T08:23:12.149Z,33.20
2018-07-01T08:28:13.115Z,32.40
2018-07-01T08:30:43.788Z,33.00
2018-07-01T08:33:14.304Z,31.40
2018-07-01T08:35:44.608Z,31.90
2018-07-01T08:38:14.876Z,30.00
2018-07-01T08:40:45.256Z,29.50
2018-07-01T08:43:15.752Z,29.60
2018-07-01T08:45:46.058Z,28.50
2018-07-01T08:48:16.303Z,28.20
2018-07-01T08:50:47.967Z,28.50
2018-07-01T08:53:18.319Z,29.60
2018-07-01T08:55:48.536Z,28.30
2018-07-01T08:58:19.012Z,29.90
2018-07-01T09:00:49.322Z,29.10
2018-07-01T09:03:19.740Z,30.00
2018-07-01T09:05:50.011Z,30.00
2018-07-01T09:08:20.327Z,30.60
2018-07-01T09:10:50.739Z,30.20
2018-07-01T09:13:21.093Z,30.20
2018-07-01T09:15:51.377Z,29.40
2018-07-01T09:18:21.680Z,29.40
2018-07-01T09:20:51.955Z,29.00
2018-07-01T09:23:22.300Z,28.70
2018-07-01T09:25:52.668Z,28.80
2018-07-01T09:28:23.124Z,29.80
2018-07-01T09:30:53.652Z,30.00
2018-07-01T09:33:24.723Z,28.60
2018-07-01T09:35:55.088Z,28.60
2018-07-01T09:38:25.444Z,28.30
2018-07-01T09:40:56.145Z,27.30
2018-07-01T09:45:56.450Z,26.80
2018-07-01T09:50:57.199Z,26.80
2018-07-01T09:53:27.556Z,25.70
2018-07-01T09:55:57.837Z,26.20
2018-07-01T09:58:28.222Z,26.20
2018-07-01T10:00:58.613Z,26.70
2018-07-01T10:03:28.915Z,26.50
2018-07-01T10:08:29.666Z,27.30
2018-07-01T10:11:00.063Z,26.60
2018-07-01T10:16:00.352Z,26.40
2018-07-01T10:18:30.692Z,26.50
2018-07-01T10:21:01.034Z,26.30
2018-07-01T10:26:03.062Z,27.20
2018-07-01T10:28:34.489Z,26.70
2018-07-01T10:31:04.891Z,26.20
2018-07-01T10:33:35.423Z,25.80
2018-07-01T10:36:05.802Z,26.00
2018-07-01T10:38:36.150Z,26.60
2018-07-01T10:41:06.983Z,26.70
2018-07-01T10:43:37.355Z,26.40
2018-07-01T10:46:07.708Z,26.20
2018-07-01T10:48:38.023Z,26.60
2018-07-01T10:53:38.296Z,25.10
2018-07-01T10:56:08.905Z,25.10
2018-07-01T10:58:39.378Z,24.70
2018-07-01T11:01:09.652Z,24.80
2018-07-01T11:03:39.989Z,25.00
2018-07-01T11:06:10.501Z,24.20
2018-07-01T11:08:40.844Z,24.50
2018-07-01T11:11:11.258Z,24.60
2018-07-01T11:13:41.665Z,24.20
2018-07-01T11:16:12.131Z,24.80
2018-07-01T11:18:42.596Z,25.40
2018-07-01T11:21:12.904Z,25.20
2018-07-01T11:23:43.313Z,25.20
2018-07-01T11:26:13.620Z,23.70
2018-07-01T11:31:13.914Z,23.60
2018-07-01T11:33:44.449Z,23.10
2018-07-01T11:36:14.715Z,22.70
2018-07-01T11:38:45.408Z,22.50
2018-07-01T11:41:15.758Z,23.20
2018-07-01T11:43:46.003Z,22.50
2018-07-01T11:46:16.291Z,23.10
2018-07-01T11:48:46.683Z,23.20
2018-07-01T11:51:18.163Z,23.10
2018-07-01T11:56:18.494Z,23.60
2018-07-01T11:58:48.849Z,23.80
2018-07-01T12:01:19.708Z,24.00
2018-07-01T12:03:50.063Z,24.20
2018-07-01T12:06:20.607Z,23.70
2018-07-01T12:08:51.129Z,24.70
2018-07-01T12:11:21.479Z,24.60
2018-07-01T12:13:51.893Z,24.50
2018-07-01T12:16:22.289Z,24.30
2018-07-01T12:18:52.688Z,23.80
2018-07-01T12:21:22.940Z,23.70
2018-07-01T12:23:53.998Z,23.80
2018-07-01T12:26:24.290Z,22.40
2018-07-01T12:28:55.146Z,21.80
2018-07-01T12:31:25.445Z,21.30
2018-07-01T12:36:25.604Z,20.90
2018-07-01T12:38:55.998Z,20.90
2018-07-01T12:43:56.374Z,21.90
2018-07-01T12:46:26.723Z,20.80
2018-07-01T12:48:57.237Z,20.40
2018-07-01T12:51:27.616Z,20.30
2018-07-01T12:53:59.204Z,20.40
2018-07-01T12:56:29.544Z,20.70
2018-07-01T12:58:59.967Z,20.90
2018-07-01T13:01:30.230Z,21.00
2018-07-01T13:04:01.693Z,20.80
2018-07-01T13:06:32.440Z,21.30
2018-07-01T13:09:02.756Z,20.70
2018-07-01T13:11:35.071Z,21.90
2018-07-01T13:14:05.444Z,21.30
2018-07-01T13:19:06.690Z,22.00
2018-07-01T13:21:37.284Z,22.40
2018-07-01T13:24:07.558Z,22.70
2018-07-01T13:31:37.947Z,23.40
2018-07-01T13:34:08.290Z,24.10
2018-07-01T13:36:38.711Z,23.60
2018-07-01T13:41:42.541Z,24.70
2018-07-01T13:44:12.827Z,24.00
2018-07-01T13:46:43.178Z,24.10
2018-07-01T13:49:13.579Z,24.70
2018-07-01T13:51:43.999Z,24.60
2018-07-01T13:56:44.535Z,24.70
2018-07-01T13:59:14.835Z,24.90
2018-07-01T14:01:45.303Z,25.00
2018-07-01T14:06:45.534Z,24.80
2018-07-01T14:09:16.821Z,25.40
2018-07-01T14:11:47.233Z,26.20
2018-07-01T14:16:47.984Z,26.10
2018-07-01T14:19:18.295Z,25.30
2018-07-01T14:24:18.858Z,25.20
2018-07-01T14:26:49.140Z,24.70
2018-07-01T14:31:49.539Z,25.70
2018-07-01T14:34:19.869Z,25.20
2018-07-01T14:36:50.181Z,25.20
2018-07-01T14:39:20.538Z,25.30
2018-07-01T14:41:51.154Z,25.20
2018-07-01T14:44:21.465Z,25.30
2018-07-01T14:46:51.787Z,25.90
2018-07-01T14:49:22.291Z,26.40
2018-07-01T14:51:52.762Z,26.50
2018-07-01T14:54:24.139Z,26.70
2018-07-01T14:56:54.489Z,26.70
2018-07-01T14:59:24.786Z,26.90
2018-07-01T15:01:55.256Z,27.50
2018-07-01T15:04:25.690Z,27.40
2018-07-01T15:06:56.065Z,27.40
2018-07-01T15:09:27.081Z,27.50
2018-07-01T15:11:57.546Z,26.90
2018-07-01T15:14:29.282Z,26.80
2018-07-01T15:16:59.619Z,26.50
2018-07-01T15:19:29.949Z,25.60
2018-07-01T15:22:00.367Z,25.70
2018-07-01T15:24:30.740Z,24.90
2018-07-01T15:27:01.249Z,25.40
2018-07-01T15:29:31.635Z,25.40
2018-07-01T15:32:02.535Z,25.40
2018-07-01T15:34:34.704Z,25.90
2018-07-01T15:37:05.034Z,26.00
2018-07-01T15:39:36.739Z,26.80
2018-07-01T15:42:07.081Z,26.60
2018-07-01T15:44:37.916Z,26.90
2018-07-01T15:47:08.206Z,27.10
2018-07-01T15:52:08.384Z,26.30
2018-07-01T15:54:38.881Z,26.00
2018-07-01T15:57:09.216Z,25.90
2018-07-01T15:59:39.559Z,25.30
2018-07-01T16:04:41.977Z,25.80
2018-07-01T16:07:12.469Z,25.40
2018-07-01T16:09:42.783Z,24.80
2018-07-01T16:12:13.078Z,25.30
2018-07-01T16:14:43.606Z,24.80
2018-07-01T16:17:13.995Z,24.20
2018-07-01T16:19:44.356Z,24.20
2018-07-01T16:22:14.712Z,25.10
2018-07-01T16:24:52.660Z,26.30
2018-07-01T16:29:58.527Z,26.90
2018-07-01T16:32:28.835Z,27.70
2018-07-01T16:34:59.252Z,27.60
2018-07-01T16:37:30.014Z,27.50
2018-07-01T16:40:00.515Z,27.90
2018-07-01T16:45:03.382Z,27.10
2018-07-01T16:47:34.438Z,27.10
2018-07-01T16:50:05.841Z,27.10
2018-07-01T16:52:36.544Z,26.50
2018-07-01T16:55:06.993Z,26.30
2018-07-01T16:57:37.250Z,26.30
2018-07-01T17:00:09.122Z,25.60
2018-07-01T17:02:39.665Z,25.80
2018-07-01T17:07:39.999Z,25.90
2018-07-01T17:10:10.307Z,25.90
2018-07-01T17:12:40.742Z,26.30
2018-07-01T17:15:10.978Z,26.40
2018-07-01T17:17:41.364Z,27.00
2018-07-01T17:20:12.667Z,27.00
2018-07-01T17:22:43.028Z,27.10
2018-07-01T17:25:13.344Z,26.90
2018-07-01T17:27:43.736Z,26.90
2018-07-01T17:30:14.193Z,26.90
2018-07-01T17:32:50.806Z,26.90
2018-07-01T17:35:21.173Z,27.20
2018-07-01T17:37:51.462Z,27.40
2018-07-01T17:40:21.883Z,27.20
2018-07-01T17:42:52.216Z,27.30
2018-07-01T17:45:22.603Z,27.40
2018-07-01T17:47:53.015Z,27.50
2018-07-01T17:50:24.468Z,27.10
2018-07-01T17:52:54.879Z,27.10
2018-07-01T17:55:25.214Z,27.10
2018-07-01T17:57:55.514Z,27.80
2018-07-01T18:02:56.439Z,27.70
2018-07-01T18:05:26.946Z,28.30
2018-07-01T18:07:57.832Z,28.60
2018-07-01T18:10:28.254Z,29.00
2018-07-01T18:12:59.527Z,29.00
2018-07-01T18:15:29.915Z,29.10
2018-07-01T18:18:00.609Z,29.30
2018-07-01T18:20:31.063Z,29.30
2018-07-01T18:23:35.852Z,29.10
2018-07-01T18:25:32.628Z,29.40
2018-07-01T18:28:15.017Z,29.40
2018-07-01T18:30:33.260Z,29.20
2018-07-01T18:33:03.649Z,29.10
2018-07-01T18:35:34.686Z,29.50
2018-07-01T18:40:35.013Z,29.30
2018-07-01T18:43:09.760Z,29.70
2018-07-01T18:45:40.289Z,30.40
2018-07-01T18:48:10.709Z,30.40
2018-07-01T18:50:41.081Z,30.80
2018-07-01T18:53:11.619Z,30.90
2018-07-01T18:55:42.000Z,31.20
2018-07-01T18:58:12.841Z,30.80
2018-07-01T19:00:43.910Z,30.80
2018-07-01T19:03:14.405Z,31.40
2018-07-01T19:08:15.151Z,30.90
2018-07-01T19:10:45.537Z,31.20
2018-07-01T19:13:16.177Z,31.50
2018-07-01T19:15:48.440Z,31.20
2018-07-01T19:18:18.970Z,31.70
2018-07-01T19:20:49.411Z,31.10
2018-07-01T19:23:19.741Z,31.10
2018-07-01T19:25:50.106Z,31.10
2018-07-01T19:28:20.594Z,30.50
2018-07-01T19:33:20.972Z,30.80
2018-07-01T19:35:51.313Z,31.00
2018-07-01T19:38:21.806Z,30.70
2018-07-01T19:40:52.093Z,30.90
2018-07-01T19:43:22.783Z,31.10
2018-07-01T19:48:23.928Z,31.10
2018-07-01T19:50:54.304Z,31.30
2018-07-01T19:53:24.766Z,31.60
2018-07-01T19:55:55.112Z,31.60
2018-07-01T19:58:25.577Z,31.30
2018-07-01T20:00:56.005Z,31.70
2018-07-01T20:05:56.500Z,32.10
2018-07-01T20:08:28.773Z,31.80
2018-07-01T20:10:59.207Z,32.30
2018-07-01T20:13:29.625Z,32.10
2018-07-01T20:16:00.033Z,32.40
2018-07-01T20:18:30.496Z,33.10
2018-07-01T20:21:01.158Z,33.10
2018-07-01T20:23:31.576Z,33.00
2018-07-01T20:26:02.757Z,32.90
2018-07-01T20:28:33.274Z,33.30
2018-07-01T20:31:03.782Z,33.90
2018-07-01T20:33:34.216Z,34.20
2018-07-01T20:36:05.686Z,35.00
2018-07-01T20:38:36.095Z,35.50
2018-07-01T20:41:06.889Z,35.90
2018-07-01T20:43:38.496Z,36.40
2018-07-01T20:46:09.262Z,37.10
2018-07-01T20:48:39.971Z,37.60
2018-07-01T20:51:13.611Z,37.60
2018-07-01T20:53:43.948Z,37.20
2018-07-01T20:56:14.992Z,38.20
2018-07-01T20:58:45.346Z,38.50
2018-07-01T21:01:19.592Z,38.50
2018-07-01T21:03:49.851Z,39.10
2018-07-01T21:06:20.219Z,39.30
2018-07-01T21:08:50.640Z,39.60
2018-07-01T21:11:21.349Z,39.80
2018-07-01T21:13:51.632Z,39.90
2018-07-01T21:16:24.327Z,40.30
2018-07-01T21:18:54.693Z,40.50
2018-07-01T21:21:25.064Z,40.90
2018-07-01T21:23:55.427Z,41.40
2018-07-01T21:26:25.759Z,41.90
2018-07-01T21:28:59.559Z,41.80
2018-07-01T21:31:30.100Z,41.80
2018-07-01T21:36:30.341Z,41.80
2018-07-01T21:39:00.699Z,42.30
2018-07-01T21:41:31.196Z,42.70
2018-07-01T21:44:01.574Z,43.00
2018-07-01T21:46:31.987Z,43.00
2018-07-01T21:54:04.458Z,43.70
2018-07-01T21:56:35.945Z,44.00
2018-07-01T21:59:06.364Z,44.10
2018-07-01T22:01:36.736Z,44.30
2018-07-01T22:04:07.286Z,44.50
2018-07-01T22:06:43.039Z,44.80
2018-07-01T22:09:13.452Z,44.70
2018-07-01T22:14:37.655Z,45.00
2018-07-01T22:17:11.070Z,45.40
2018-07-01T22:19:41.458Z,45.80
2018-07-01T22:22:11.858Z,45.80
2018-07-01T22:24:43.023Z,45.90
2018-07-01T22:29:43.579Z,46.40
2018-07-01T22:32:14.314Z,46.50
2018-07-01T22:34:44.671Z,46.80
2018-07-01T22:37:15.359Z,47.00
2018-07-01T22:39:45.746Z,47.10
2018-07-01T22:44:46.317Z,47.70
2018-07-01T22:47:16.659Z,47.80
2018-07-01T22:49:47.520Z,48.20
2018-07-01T22:52:17.923Z,48.40
2018-07-01T22:54:48.503Z,48.70
2018-07-01T22:57:18.945Z,48.80
2018-07-01T22:59:49.250Z,49.00
2018-07-01T23:03:04.430Z,49.50
2018-07-01T23:05:34.776Z,49.80
2018-07-01T23:08:05.187Z,50.40
2018-07-01T23:13:05.619Z,49.80
2018-07-01T23:15:36.075Z,49.70
2018-07-01T23:18:06.521Z,49.60
2018-07-01T23:20:36.972Z,49.60
2018-07-01T23:23:07.541Z,50.30
2018-07-01T23:25:37.901Z,50.50
2018-07-01T23:28:08.453Z,50.80
2018-07-01T23:30:38.911Z,50.80
2018-07-01T23:33:09.225Z,51.00
2018-07-01T23:35:39.559Z,51.20
2018-07-01T23:38:10.151Z,51.00
2018-07-01T23:43:10.661Z,50.90
2018-07-01T23:45:41.137Z,50.90
2018-07-01T23:48:11.598Z,51.10
2018-07-01T23:50:43.026Z,51.00
2018-07-01T23:53:13.440Z,51.10
2018-07-01T23:55:44.190Z,51.80
2018-07-01T23:58:14.793Z,51.70
